Announcements:Snow will not be measured yet-the heater is not on in the collector.
Email Mr. Reynolds

Nearby METAR Reports

 

KMIC - Crystal, Minnesota, USA
Distance from station: S 7mi, 16km
Updated: Sun, 01/29/2023 9:53am CST
Clear
Clear
 Wind from W
Wind: W 7 mph , 11 km/h
Temperature: -2°F , -19°C
Wind Chill: -15°F , -26°C
Dew Point: -11°F , -24°C
Humidity: 65%
Barometer: 30.46 inHg , 1031.5 hPa
Clouds: Clear
Visibility: 10 miles , 16 km
2023/01/29 15:53 KMIC 291553Z 28006KT 10SM CLR M19/M24 A3046 RMK AO2 SLP339 T11941239
KANE - Anoka-Blaine, Minnesota, USA
Distance from station: SW 16mi, 27km
Updated: Sun, 01/29/2023 9:50am CST
Partly cloudy
Partly cloudy
 Wind from WNW
Wind: WNW 8 mph , 13 km/h
Temperature: -2°F , -19°C
Wind Chill: -17°F , -27°C
Dew Point: -9°F , -23°C
Humidity: 71%
Barometer: 30.45 inHg , 1031.2 hPa
Clouds: Partly cloudy
Visibility: 10 miles , 16 km
Cloud details: Partly cloudy 20000 ft
2023/01/29 15:50 KANE 291550Z 30007KT 10SM SCT200 M19/M23 A3045
KFCM - Flying Cloud-Eden Prairie, Minnesota, USA
Distance from station: NE 17mi, 28km
Updated: Sun, 01/29/2023 9:53am CST
Clear
Clear
 Wind from WNW
Wind: WNW 7 mph , 11 km/h
Temperature: -2°F , -19°C
Wind Chill: -15°F , -26°C
Dew Point: -11°F , -24°C
Humidity: 65%
Barometer: 30.46 inHg , 1031.5 hPa
Clouds: Clear
Visibility: 10 miles , 16 km
2023/01/29 15:53 KFCM 291553Z 30006KT 10SM CLR M19/M24 A3046 RMK AO2 SLP339 T11891239
 
KMSP - Minneapolis-St. Paul, Minnesota, USA
Distance from station: NW 16mi, 27km
Updated: Sun, 01/29/2023 9:53am CST
Mostly cloudy
Mostly cloudy
 Wind from NNW
Wind: NNW 10 mph , 17 km/h
Temperature: -0°F , -18°C
Wind Chill: -16°F , -27°C
Dew Point: -11°F , -24°C
Humidity: 60%
Barometer: 30.47 inHg , 1031.8 hPa
Clouds: Mostly cloudy
Visibility: 10 miles , 16 km
Cloud details: Mostly cloudy 18000 ft
2023/01/29 15:53 KMSP 291553Z 33009KT 10SM BKN180 M18/M24 A3047 RMK AO2 SLP342 T11831239
KRST - Rochester, Minnesota, USA
Distance from station: NW 99mi, 159km
Updated: Sun, 01/29/2023 9:54am CST
Clear
Clear
 Wind from NNW
Wind: NNW 15 mph , 24 km/h
Temperature: -0°F , -18°C
Wind Chill: -19°F , -28°C
Dew Point: -9°F , -23°C
Humidity: 65%
Barometer: 30.37 inHg , 1028.4 hPa
Clouds: Clear
Visibility: 10 miles , 16 km
2023/01/29 15:54 KRST 291554Z 33013KT 10SM CLR M18/M23 A3037 RMK AO2 UPB1456E09 SLP319 P0000 T11831233
KSGS - Fleming/St Paul, Minnesota, USA
Distance from station: W 23mi, 37km
Updated: Sun, 01/29/2023 9:55am CST
Clear
Clear
 Wind from NW
Wind: NW 8 mph , 13 km/h
Temperature: 1°F , -17°C
Wind Chill: -13°F , -25°C
Dew Point: -9°F , -23°C
Humidity: 60%
Barometer: 30.47 inHg , 1031.8 hPa
Clouds: Clear
Visibility: 10 miles , 16 km
2023/01/29 15:55 KSGS 291555Z AUTO 31007KT 10SM CLR M17/M23 A3047 RMK AO2 T11751235
 
KDLH - Duluth, Minnesota, USA
Distance from station: SSW 164mi, 265km
Updated: Sun, 01/29/2023 9:55am CST
Clear
Clear
 Wind from WNW
Wind: WNW 8 mph , 13 km/h
Temperature: -9°F , -23°C
Wind Chill: -25°F , -32°C
Dew Point: -17°F , -27°C
Humidity: 70%
Barometer: 30.29 inHg , 1025.7 hPa
Clouds: Clear
Visibility: 10 miles , 16 km
2023/01/29 15:55 KDLH 291555Z 29007KT 10SM CLR M23/M27 A3029 RMK AO2 SLP308 T12281267
KBRD - Brainard, Minnesota, USA
Distance from station: SSE 127mi, 25km
Updated: Sun, 01/29/2023 9:53am CST
Clear
Clear
 Wind from W
Wind: W 5 mph , 7 km/h
Temperature: -9°F , -23°C
Wind Chill: -21°F , -29°C
Dew Point: -15°F , -26°C
Humidity: 77%
Barometer: 30.37 inHg , 1028.4 hPa
Clouds: Clear
Visibility: 10 miles , 16 km
2023/01/29 15:53 KBRD 291553Z AUTO 26004KT 10SM CLR M23/M26 A3037 RMK AO2 SLP327 T12281261 $